Airfield :







YOU CAN JOIN US ON...

 
LOGIN :

Register | Disclaimer

   EN    FR    IT 

 









Legend :    VFR   Marginal VFR   IFR   Intensive IFR   Very Intensive IFR
Visi :
Ceiling :
>= 8 km
>= 3000ft
5 to 8 km
1000 to 3000 ft
1500m to 5 km
500 to 1000 ft
800 to 1500m
200 to 500 ft
< 800m
< 200 ft
Symbols :   Thunderstorms  Fog  Heavy snow  Heavy precipitations  Wind > 20 kt







- Airport Elevation : 342 ft


KCON - Concord Municipal

CURRENT METAR :
  • 201951Z AUTO VRB06KT 10SM FEW055 35/21 A2973 RMK AO2 SLP065 T03500211 $

EXPIRED METARs :
  • 201851Z AUTO 20009KT 10SM SCT060 33/21 A2974 RMK AO2 SLP069 T03330211 $
  • 201751Z AUTO 32008KT 280V340 10SM CLR 36/19 A2976 RMK AO2 SLP076 T03560189 10356 20267 58016 $

TAF KCON
Valid from the 20 at 18:00 until the 21 at 18:00 UTC


201720Z 2018/2118 25005KT P6SM FEW050 SCT250
FM210000 00000KT P6SM FEW250
FM211400 28009G16KT P6SM FEW100 SCT250
KZBW FIR / North America



MET'MAP, your aeronautical weather chart ! - Copyright ORBIFLY December 2007 - Disclaimer

ORBIFLY MET'MAP TEAM :

Programming & Development : Alexandra Zaïnal
Concept & Development : Baudouin d'Aumeries
Co-Development & Prog : Marc-Olivier Méhu
Technical & hardware support : Manuel Goepfert

Contact : metmap@orbifly.com




SOURCES & CREDITS :

   NOAA